Time;durP1;ratioP1;P1;durP2;ratioP2;P2;SDS_P1;SDS_P2;PMS_P1;PMS_P2;Temp;Humidity;BMP_temperature;BMP_pressure;BME280_temperature;BME280_humidity;BME280_pressure;Samples;Min_cycle;Max_cycle;Signal;HPM_P1;HPM_P2
2021/12/16 00:02:25;;;;;;;;;;;;;;;19.02;48.07;100841.97;2085056;28;19916;-67
2021/12/16 00:08:04;;;;;;;;;;;;;;;19.00;48.02;100835.75;2088284;28;20014;-67
2021/12/16 00:09:09;;;;;;;;;;;;;;;19.00;48.11;100846.69;2087803;28;20668;-66
2021/12/16 00:42:51;;;;;;;;;;;;;;;19.02;48.14;100827.44;2083457;28;19912;-65
2021/12/16 00:45:22;;;;;;;;;;;;;;;19.02;48.10;100849.31;2068810;28;19916;-66
2021/12/16 00:48:04;;;;;;;;;;;;;;;19.01;48.05;100828.44;2053444;28;19918;-66
2021/12/16 00:54:12;;;;;;;;;;;;;;;19.05;47.99;100825.31;2089195;28;19916;-65
2021/12/16 00:55:34;;;;;;;;;;;;;;;19.07;48.03;100827.91;2084082;28;19936;-66
2021/12/16 00:56:33;;;;;;;;;;;;;;;19.08;47.97;100826.91;2092275;28;19915;-66
2021/12/16 00:57:33;;;;;;;;;;;;;;;19.08;47.98;100826.91;2089633;28;19926;-66
2021/12/16 01:00:31;;;;;;;;;;;;;;;19.09;47.86;100825.91;2097093;28;20139;-67
2021/12/16 01:01:46;;;;;;;;;;;;;;;19.09;47.94;100823.19;2089856;28;20007;-67
2021/12/16 01:35:18;;;;;;;;;;;;;;;19.49;46.76;100820.56;2093634;28;20022;-63
2021/12/16 01:36:45;;;;;;;;;;;;;;;19.52;46.74;100816.69;2091794;28;19916;-62
2021/12/16 01:45:25;;;;;;;;;;;;;;;19.58;46.62;100823.50;2104363;28;20011;-63
2021/12/16 01:50:05;;;;;;;;;;;;;;;19.63;46.57;100827.56;2094804;28;19917;-63
2021/12/16 01:51:20;;;;;;;;;;;;;;;19.63;46.54;100830.28;2100488;28;19916;-62
2021/12/16 01:54:55;;;;;;;;;;;;;;;19.64;46.50;100829.28;2110102;28;19919;-62
2021/12/16 01:56:02;;;;;;;;;;;;;;;19.65;46.32;100831.03;2109194;28;19999;-63
2021/12/16 01:57:27;;;;;;;;;;;;;;;19.66;46.36;100832.75;2104966;28;19966;-62
2021/12/16 01:58:30;;;;;;;;;;;;;;;19.66;46.43;100827.28;2104317;28;20147;-62
2021/12/16 01:59:35;;;;;;;;;;;;;;;19.67;46.36;100830.88;2104689;28;19919;-62
2021/12/16 02:00:55;;;;;;;;;;;;;;;19.67;46.38;100834.53;2104433;28;19940;-63
2021/12/16 02:02:03;;;;;;;;;;;;;;;19.67;46.40;100836.34;2104970;28;20389;-62
2021/12/16 02:03:04;;;;;;;;;;;;;;;19.66;46.30;100837.34;2101027;28;19942;-62
2021/12/16 02:04:13;;;;;;;;;;;;;;;19.68;46.30;100830.78;2103664;28;20452;-62
2021/12/16 02:05:27;;;;;;;;;;;;;;;19.66;46.43;100838.22;2102686;28;19924;-62
2021/12/16 02:08:42;;;;;;;;;;;;;;;19.65;46.49;100828.28;2104290;28;20215;-62
2021/12/16 02:09:45;;;;;;;;;;;;;;;19.67;46.50;100829.06;2101866;28;20303;-62
2021/12/16 02:10:55;;;;;;;;;;;;;;;19.65;46.45;100836.50;2091368;28;19920;-63
2021/12/16 02:12:09;;;;;;;;;;;;;;;19.66;46.40;100832.75;2089536;28;19916;-63
2021/12/16 02:13:35;;;;;;;;;;;;;;;19.66;46.45;100827.28;2091921;28;19928;-63
2021/12/16 02:28:43;;;;;;;;;;;;;;;19.67;46.74;100834.53;2091824;28;20026;-67
2021/12/16 02:29:30;;;;;;;;;;;;;;;19.67;46.39;100833.59;2081053;28;19917;-67
2021/12/16 02:31:55;;;;;;;;;;;;;;;19.69;46.33;100835.25;2093594;28;19923;-67
2021/12/16 02:34:20;;;;;;;;;;;;;;;19.68;46.36;100836.25;2104779;28;19961;-63
2021/12/16 02:37:44;;;;;;;;;;;;;;;19.70;46.29;100839.72;2105407;28;19955;-62
2021/12/16 02:38:46;;;;;;;;;;;;;;;19.70;46.28;100833.41;2103869;28;19952;-62
2021/12/16 02:39:47;;;;;;;;;;;;;;;19.71;46.33;100840.59;2105047;28;19958;-62
2021/12/16 02:40:47;;;;;;;;;;;;;;;19.70;46.36;100834.25;2106190;28;19962;-62
2021/12/16 02:41:50;;;;;;;;;;;;;;;19.69;46.34;100835.25;2104690;28;19943;-62
2021/12/16 02:43:53;;;;;;;;;;;;;;;19.68;46.33;100828.06;2105036;28;19969;-62
2021/12/16 02:44:21;;;;;;;;;;;;;;;19.70;46.24;100828.78;2098807;28;19912;-62
2021/12/16 02:49:21;;;;;;;;;;;;;;;19.69;46.42;100837.13;2102889;28;19919;-62
2021/12/16 02:50:23;;;;;;;;;;;;;;;19.68;46.43;100840.88;2104505;28;19920;-62
2021/12/16 02:51:26;;;;;;;;;;;;;;;19.68;46.38;100840.88;2105623;28;19912;-62
2021/12/16 02:52:27;;;;;;;;;;;;;;;19.67;46.31;100831.81;2104669;28;19912;-62
2021/12/16 02:53:27;;;;;;;;;;;;;;;19.67;46.32;100833.59;2105674;28;19912;-62
2021/12/16 02:54:28;;;;;;;;;;;;;;;19.67;46.35;100833.59;2108767;28;20363;-62
2021/12/16 02:55:29;;;;;;;;;;;;;;;19.66;46.46;100824.53;2105404;28;19912;-63
2021/12/16 02:56:29;;;;;;;;;;;;;;;19.65;46.40;100825.56;2105463;28;19920;-62
2021/12/16 02:57:32;;;;;;;;;;;;;;;19.66;46.38;100827.28;2107883;28;19958;-62
2021/12/16 02:58:34;;;;;;;;;;;;;;;19.64;46.48;100829.28;2104836;28;19919;-62
2021/12/16 02:59:35;;;;;;;;;;;;;;;19.66;46.45;100827.28;2105080;28;20374;-62
2021/12/16 03:00:38;;;;;;;;;;;;;;;19.66;46.38;100830.00;2105303;28;20556;-62
2021/12/16 03:01:41;;;;;;;;;;;;;;;19.67;46.43;100833.59;2104888;28;19977;-62
2021/12/16 03:02:43;;;;;;;;;;;;;;;19.66;46.41;100827.28;2104233;28;19916;-62
2021/12/16 03:03:44;;;;;;;;;;;;;;;19.65;46.55;100831.03;2100167;28;20426;-62
2021/12/16 03:04:46;;;;;;;;;;;;;;;19.65;46.47;100824.69;2103796;28;20290;-62
2021/12/16 03:05:47;;;;;;;;;;;;;;;19.65;46.48;100831.03;2103550;28;20394;-62
2021/12/16 03:06:51;;;;;;;;;;;;;;;19.65;46.55;100828.28;2104840;28;20360;-62
2021/12/16 03:07:52;;;;;;;;;;;;;;;19.64;46.52;100823.81;2104610;28;19916;-62
2021/12/16 03:08:52;;;;;;;;;;;;;;;19.64;46.63;100829.28;2104821;28;19998;-62
2021/12/16 03:13:42;;;;;;;;;;;;;;;19.63;46.46;100830.28;2108569;28;19923;-62
2021/12/16 03:14:52;;;;;;;;;;;;;;;19.63;46.58;100827.56;2106292;28;20369;-62
2021/12/16 03:16:08;;;;;;;;;;;;;;;19.63;46.59;100822.09;2105616;28;19913;-62
2021/12/16 03:18:22;;;;;;;;;;;;;;;19.61;46.63;100829.56;2103333;28;19916;-62
2021/12/16 03:20:52;;;;;;;;;;;;;;;19.60;46.65;100830.56;2105570;28;19912;-62
2021/12/16 03:21:57;;;;;;;;;;;;;;;19.60;46.65;100829.69;2105057;28;19912;-62
2021/12/16 03:23:14;;;;;;;;;;;;;;;19.59;46.71;100823.34;2097222;28;19913;-62
2021/12/16 03:25:33;;;;;;;;;;;;;;;19.59;46.61;100830.69;2104773;28;20344;-62
2021/12/16 03:32:59;;;;;;;;;;;;;;;19.56;46.81;100823.63;2105419;28;20018;-62
2021/12/16 03:34:56;;;;;;;;;;;;;;;19.56;46.70;100822.78;2105007;28;20007;-62
2021/12/16 03:37:22;;;;;;;;;;;;;;;19.55;46.77;100824.66;2103376;28;20409;-62
2021/12/16 03:38:22;;;;;;;;;;;;;;;19.56;46.76;100815.44;2105252;28;20139;-62
2021/12/16 03:39:24;;;;;;;;;;;;;;;19.55;46.78;100823.75;2103383;28;19919;-62
2021/12/16 03:40:25;;;;;;;;;;;;;;;19.53;46.73;100821.19;2103723;28;19930;-62
2021/12/16 03:41:26;;;;;;;;;;;;;;;19.54;46.86;100817.44;2104354;28;20344;-62
2021/12/16 03:42:33;;;;;;;;;;;;;;;19.52;46.84;100813.97;2104975;28;20003;-62
2021/12/16 03:43:34;;;;;;;;;;;;;;;19.52;46.84;100819.44;2104510;28;20378;-63
2021/12/16 03:44:52;;;;;;;;;;;;;;;19.51;46.82;100817.69;2105389;28;20116;-62
2021/12/16 03:47:12;;;;;;;;;;;;;;;19.51;46.80;100823.19;2100229;28;19990;-62
2021/12/16 03:48:16;;;;;;;;;;;;;;;19.52;46.80;100822.16;2105842;28;20015;-62
2021/12/16 03:49:19;;;;;;;;;;;;;;;19.51;46.84;100823.19;2104541;28;20314;-62
2021/12/16 03:50:20;;;;;;;;;;;;;;;19.51;46.83;100828.63;2105380;28;19912;-62
2021/12/16 03:51:23;;;;;;;;;;;;;;;19.51;46.81;100823.19;2105091;28;19919;-63
2021/12/16 03:52:24;;;;;;;;;;;;;;;19.50;46.88;100821.44;2104767;28;20228;-62
2021/12/16 03:53:25;;;;;;;;;;;;;;;19.50;46.87;100821.44;2105650;28;19923;-62
2021/12/16 03:54:31;;;;;;;;;;;;;;;19.50;46.90;100821.44;2104952;28;20033;-62
2021/12/16 03:55:31;;;;;;;;;;;;;;;19.49;46.84;100825.16;2104865;28;19919;-62
2021/12/16 03:56:32;;;;;;;;;;;;;;;19.48;46.92;100823.44;2105169;28;19916;-62
2021/12/16 03:57:32;;;;;;;;;;;;;;;19.48;46.84;100817.97;2104167;28;19916;-63
2021/12/16 03:58:33;;;;;;;;;;;;;;;19.48;46.92;100817.97;2104747;28;19912;-62
2021/12/16 03:59:35;;;;;;;;;;;;;;;19.46;46.85;100822.72;2104936;28;19919;-63
2021/12/16 04:00:41;;;;;;;;;;;;;;;19.47;46.88;100821.69;2105136;28;20382;-62
2021/12/16 04:01:42;;;;;;;;;;;;;;;19.47;46.88;100816.22;2105439;28;20333;-62
2021/12/16 04:02:42;;;;;;;;;;;;;;;19.47;46.92;100821.69;2104799;28;19948;-62
2021/12/16 04:03:43;;;;;;;;;;;;;;;19.46;46.98;100818.09;2105273;28;20329;-62
2021/12/16 04:04:43;;;;;;;;;;;;;;;19.46;46.91;100817.25;2105075;28;19920;-62
2021/12/16 04:05:45;;;;;;;;;;;;;;;19.45;46.91;100829.16;2096202;28;19912;-62
2021/12/16 04:06:45;;;;;;;;;;;;;;;19.46;47.11;100822.72;2095680;28;19912;-63
2021/12/16 04:07:47;;;;;;;;;;;;;;;19.45;46.99;100823.69;2105113;28;20029;-62
2021/12/16 04:08:48;;;;;;;;;;;;;;;19.44;46.94;100821.97;2103922;28;19959;-62
2021/12/16 04:09:49;;;;;;;;;;;;;;;19.45;47.08;100823.69;2105124;28;20350;-63
2021/12/16 04:11:00;;;;;;;;;;;;;;;19.45;46.89;100820.97;2104133;28;19946;-62
2021/12/16 04:12:09;;;;;;;;;;;;;;;19.43;46.90;100823.84;2105394;28;20211;-62
2021/12/16 04:13:14;;;;;;;;;;;;;;;19.43;46.99;100825.72;2099797;28;20011;-62
2021/12/16 04:14:14;;;;;;;;;;;;;;;19.43;46.95;100831.19;2104918;28;20005;-63
2021/12/16 04:15:14;;;;;;;;;;;;;;;19.43;47.07;100828.47;2105228;28;19916;-62
2021/12/16 04:16:15;;;;;;;;;;;;;;;19.42;46.98;100826.72;2104996;28;19912;-62
2021/12/16 04:17:16;;;;;;;;;;;;;;;19.42;47.11;100829.44;2104973;28;20504;-62
2021/12/16 04:18:16;;;;;;;;;;;;;;;19.41;47.06;100831.31;2105461;28;19920;-62
2021/12/16 04:19:18;;;;;;;;;;;;;;;19.41;47.06;100833.19;2105233;28;20436;-62
2021/12/16 04:20:18;;;;;;;;;;;;;;;19.40;47.04;100834.16;2104852;28;19920;-62
2021/12/16 04:21:19;;;;;;;;;;;;;;;19.39;47.09;100836.03;2101954;28;19912;-62
2021/12/16 04:22:30;;;;;;;;;;;;;;;19.40;47.04;100834.16;2100543;28;20295;-62
2021/12/16 04:23:31;;;;;;;;;;;;;;;19.40;47.11;100842.38;2105085;28;20376;-62
2021/12/16 04:24:32;;;;;;;;;;;;;;;19.39;47.06;100837.91;2105045;28;19913;-62
2021/12/16 04:25:34;;;;;;;;;;;;;;;19.38;47.09;100837.06;2104609;28;20030;-62
2021/12/16 04:26:36;;;;;;;;;;;;;;;19.38;47.17;100836.19;2098669;28;19916;-62
2021/12/16 04:27:36;;;;;;;;;;;;;;;19.37;47.13;100843.50;2097760;28;19908;-62
2021/12/16 04:28:37;;;;;;;;;;;;;;;19.37;47.13;100835.31;2098824;28;19912;-62
2021/12/16 04:29:37;;;;;;;;;;;;;;;19.37;47.17;100842.66;2105415;28;20271;-62
2021/12/16 04:30:38;;;;;;;;;;;;;;;19.35;47.17;100834.56;2103696;28;20386;-62
2021/12/16 04:31:38;;;;;;;;;;;;;;;19.36;47.18;100846.41;2102364;28;19912;-63
2021/12/16 04:32:39;;;;;;;;;;;;;;;19.34;47.21;100841.06;2104873;28;20278;-62
2021/12/16 04:33:39;;;;;;;;;;;;;;;19.35;47.18;100844.66;2105146;28;20156;-62
2021/12/16 04:34:40;;;;;;;;;;;;;;;19.35;47.20;100844.66;2105535;28;19912;-61
2021/12/16 04:35:41;;;;;;;;;;;;;;;19.34;47.20;100840.19;2104654;28;19922;-62
2021/12/16 04:36:42;;;;;;;;;;;;;;;19.34;47.17;100842.94;2102362;28;19919;-63
2021/12/16 04:37:42;;;;;;;;;;;;;;;19.32;47.26;100837.59;2104769;28;20349;-63
2021/12/16 04:38:44;;;;;;;;;;;;;;;19.32;47.26;100840.31;2104798;28;19912;-62
2021/12/16 04:39:45;;;;;;;;;;;;;;;19.32;47.29;100844.91;2105205;28;19966;-62
2021/12/16 04:40:48;;;;;;;;;;;;;;;19.33;47.34;100846.63;2097479;28;19916;-67
2021/12/16 04:41:50;;;;;;;;;;;;;;;19.32;47.31;100847.66;2091434;28;19920;-67
2021/12/16 04:42:52;;;;;;;;;;;;;;;19.32;47.26;100845.78;2091028;28;19916;-66
2021/12/16 04:43:54;;;;;;;;;;;;;;;19.31;47.28;100846.78;2092053;28;19960;-66
2021/12/16 04:44:54;;;;;;;;;;;;;;;19.31;47.33;100849.53;2082265;28;19940;-66
2021/12/16 04:45:55;;;;;;;;;;;;;;;19.30;47.39;100842.31;2073818;28;19927;-67
2021/12/16 04:46:56;;;;;;;;;;;;;;;19.30;47.31;100845.03;2083100;28;19908;-67
2021/12/16 04:47:57;;;;;;;;;;;;;;;19.30;47.31;100844.19;2092226;28;20382;-66
2021/12/16 04:48:58;;;;;;;;;;;;;;;19.28;47.41;100844.34;2089112;28;20291;-66
2021/12/16 04:49:59;;;;;;;;;;;;;;;19.28;47.39;100845.19;2091176;28;20057;-66
2021/12/16 04:50:59;;;;;;;;;;;;;;;19.29;47.45;100851.53;2090393;28;20324;-66
2021/12/16 04:52:01;;;;;;;;;;;;;;;19.26;47.47;100847.19;2092541;28;19927;-67
2021/12/16 04:53:02;;;;;;;;;;;;;;;19.25;47.47;100845.44;2090000;28;19912;-66
2021/12/16 04:54:04;;;;;;;;;;;;;;;19.26;47.39;100854.53;2090285;28;19916;-67
2021/12/16 04:55:06;;;;;;;;;;;;;;;19.25;47.41;100848.16;2096333;28;20858;-67
2021/12/16 04:56:08;;;;;;;;;;;;;;;19.25;47.48;100855.50;2081467;28;19916;-66
2021/12/16 04:57:09;;;;;;;;;;;;;;;19.25;47.47;100855.50;2081040;28;19928;-66
2021/12/16 04:58:09;;;;;;;;;;;;;;;19.23;47.49;100852.94;2092219;28;19920;-67
2021/12/16 04:59:12;;;;;;;;;;;;;;;19.23;47.50;100855.66;2089635;28;19983;-66
2021/12/16 05:00:14;;;;;;;;;;;;;;;19.24;47.50;100853.78;2091948;28;19916;-67
2021/12/16 05:01:15;;;;;;;;;;;;;;;19.22;47.47;100850.31;2092020;28;20378;-66
2021/12/16 05:02:17;;;;;;;;;;;;;;;19.22;47.56;100847.59;2090636;28;20500;-66
2021/12/16 05:03:17;;;;;;;;;;;;;;;19.22;47.47;100853.91;2095118;28;19916;-66
2021/12/16 05:04:18;;;;;;;;;;;;;;;19.22;47.47;100856.66;2093375;28;19931;-67
2021/12/16 05:05:20;;;;;;;;;;;;;;;19.21;47.51;100849.47;2091212;28;20305;-66
2021/12/16 05:06:21;;;;;;;;;;;;;;;19.21;47.63;100854.06;2090498;28;20005;-66
2021/12/16 05:07:22;;;;;;;;;;;;;;;19.21;47.56;100854.06;2090659;28;19919;-67
2021/12/16 05:08:22;;;;;;;;;;;;;;;19.20;47.55;100858.63;2090798;28;20058;-66
2021/12/16 05:10:11;;;;;;;;;;;;;;;19.19;47.62;100856.91;2095476;28;19962;-67
2021/12/16 05:10:44;;;;;;;;;;;;;;;19.20;47.54;100855.91;2082283;28;19916;-66
2021/12/16 05:11:45;;;;;;;;;;;;;;;19.19;47.62;100856.91;2091628;28;20839;-66
2021/12/16 05:12:49;;;;;;;;;;;;;;;19.19;47.62;100867.00;2091675;28;20063;-67
2021/12/16 05:13:49;;;;;;;;;;;;;;;19.19;47.58;100865.13;2084642;28;19955;-67
2021/12/16 05:14:50;;;;;;;;;;;;;;;19.20;47.56;100871.44;2092094;28;20311;-66
2021/12/16 05:15:51;;;;;;;;;;;;;;;19.18;47.50;100871.59;2082265;28;19917;-66
2021/12/16 05:16:51;;;;;;;;;;;;;;;19.18;47.57;100871.59;2082832;28;19916;-67
2021/12/16 05:17:54;;;;;;;;;;;;;;;19.19;47.57;100869.72;2089278;28;20382;-67
2021/12/16 05:18:56;;;;;;;;;;;;;;;19.18;47.59;100870.69;2091189;28;20322;-67
2021/12/16 05:20:00;;;;;;;;;;;;;;;19.16;47.60;100868.13;2090678;28;19916;-67
2021/12/16 05:21:02;;;;;;;;;;;;;;;19.16;47.63;100868.13;2090944;28;19923;-66
2021/12/16 05:24:40;;;;;;;;;;;;;;;19.15;47.73;100876.44;2092320;28;19916;-67
2021/12/16 05:25:59;;;;;;;;;;;;;;;19.13;47.70;100879.28;2090579;28;19912;-66
2021/12/16 05:27:01;;;;;;;;;;;;;;;19.13;47.69;100882.03;2083574;28;20134;-67
2021/12/16 05:28:03;;;;;;;;;;;;;;;19.13;47.70;100882.03;2087914;28;19916;-66
2021/12/16 05:29:03;;;;;;;;;;;;;;;19.14;47.69;100881.03;2091259;28;20397;-66
2021/12/16 05:30:04;;;;;;;;;;;;;;;19.14;47.75;100889.25;2088806;28;20287;-67
2021/12/16 05:31:04;;;;;;;;;;;;;;;19.13;47.65;100879.28;2085393;28;19940;-66
2021/12/16 05:32:05;;;;;;;;;;;;;;;19.11;47.73;100874.97;2091302;28;19943;-66
2021/12/16 05:33:06;;;;;;;;;;;;;;;19.11;47.76;100886.78;2091544;28;19916;-67
2021/12/16 05:34:07;;;;;;;;;;;;;;;19.10;47.71;100879.56;2090763;28;19908;-67
2021/12/16 05:35:08;;;;;;;;;;;;;;;19.11;47.71;100886.78;2091435;28;20000;-66
2021/12/16 05:36:09;;;;;;;;;;;;;;;19.09;47.85;100886.03;2090901;28;19915;-66
2021/12/16 05:37:09;;;;;;;;;;;;;;;19.09;47.86;100883.31;2090793;28;19914;-66
2021/12/16 05:38:10;;;;;;;;;;;;;;;19.09;47.71;100879.72;2090814;28;19928;-66
2021/12/16 05:39:12;;;;;;;;;;;;;;;19.08;47.71;100877.97;2092362;28;19923;-66
2021/12/16 05:40:14;;;;;;;;;;;;;;;19.08;47.77;100881.56;2087972;28;20310;-66
2021/12/16 05:41:16;;;;;;;;;;;;;;;19.08;47.74;100881.56;2086482;28;20192;-67
2021/12/16 05:42:16;;;;;;;;;;;;;;;19.06;47.71;100889.03;2091580;28;20818;-66
2021/12/16 05:43:17;;;;;;;;;;;;;;;19.05;47.76;100888.16;2090037;28;20366;-66
2021/12/16 05:44:18;;;;;;;;;;;;;;;19.06;47.82;100894.50;2091548;28;20365;-66
2021/12/16 05:45:19;;;;;;;;;;;;;;;19.05;47.89;100892.75;2091361;28;19916;-66
2021/12/16 05:46:20;;;;;;;;;;;;;;;19.06;47.75;100889.03;2090294;28;19916;-67
2021/12/16 05:47:21;;;;;;;;;;;;;;;19.04;47.90;100897.34;2091451;28;19920;-66
2021/12/16 05:48:23;;;;;;;;;;;;;;;19.04;47.86;100893.75;2090005;28;19920;-66
2021/12/16 05:49:23;;;;;;;;;;;;;;;19.04;47.89;100896.50;2091451;28;20431;-66
2021/12/16 05:50:25;;;;;;;;;;;;;;;19.04;47.81;100896.50;2091473;28;20373;-66
2021/12/16 05:51:30;;;;;;;;;;;;;;;19.03;47.90;100894.75;2090872;28;19908;-66
2021/12/16 05:52:30;;;;;;;;;;;;;;;19.02;47.92;100898.50;2089640;28;20073;-67
2021/12/16 05:53:31;;;;;;;;;;;;;;;19.03;47.98;100894.75;2090974;28;19981;-67
2021/12/16 05:54:31;;;;;;;;;;;;;;;19.02;47.90;100893.88;2093048;28;19915;-66
2021/12/16 05:55:32;;;;;;;;;;;;;;;19.01;47.87;100897.63;2083066;28;20426;-66
2021/12/16 05:56:33;;;;;;;;;;;;;;;19.02;47.94;100898.50;2087503;28;21022;-66
2021/12/16 05:57:34;;;;;;;;;;;;;;;19.01;48.00;100902.19;2075955;28;19963;-67
2021/12/16 05:58:36;;;;;;;;;;;;;;;19.00;47.92;100901.34;2081615;28;19946;-66
2021/12/16 05:59:36;;;;;;;;;;;;;;;19.01;47.99;100902.19;2089320;28;20387;-67
2021/12/16 06:00:39;;;;;;;;;;;;;;;19.00;47.94;100905.94;2090117;28;20305;-66
2021/12/16 06:01:41;;;;;;;;;;;;;;;19.00;47.99;100906.81;2090060;28;19916;-66
2021/12/16 06:02:42;;;;;;;;;;;;;;;19.00;47.91;100908.66;2090590;28;19916;-67
2021/12/16 06:03:42;;;;;;;;;;;;;;;18.99;47.98;100904.22;2094610;28;19947;-67
2021/12/16 06:04:43;;;;;;;;;;;;;;;18.98;47.95;100907.94;2089354;28;19924;-66
2021/12/16 06:05:43;;;;;;;;;;;;;;;18.99;48.04;100909.69;2092688;28;20022;-67
2021/12/16 06:06:44;;;;;;;;;;;;;;;18.99;48.08;100909.69;2088166;28;19951;-67
2021/12/16 06:07:44;;;;;;;;;;;;;;;18.97;47.90;100904.34;2091247;28;19916;-66
2021/12/16 06:08:45;;;;;;;;;;;;;;;18.96;47.94;100904.44;2083609;28;19969;-66
2021/12/16 06:09:47;;;;;;;;;;;;;;;18.96;47.92;100910.81;2082797;28;19912;-67
2021/12/16 06:12:01;;;;;;;;;;;;;;;18.97;47.97;100911.66;2091899;28;19920;-66
2021/12/16 06:13:01;;;;;;;;;;;;;;;18.94;47.93;100907.34;2090886;28;20367;-66
2021/12/16 06:14:13;;;;;;;;;;;;;;;18.95;48.15;100913.66;2089445;28;19916;-66
2021/12/16 06:28:02;;;;;;;;;;;;;;;18.90;48.05;100926.84;2093837;28;20352;-67
2021/12/16 06:29:03;;;;;;;;;;;;;;;18.91;48.17;100923.09;2092099;28;20499;-66
2021/12/16 06:30:08;;;;;;;;;;;;;;;18.90;48.03;100918.66;2093298;28;19916;-66
2021/12/16 06:31:08;;;;;;;;;;;;;;;18.89;48.19;100930.56;2093583;28;20378;-66
2021/12/16 06:32:09;;;;;;;;;;;;;;;18.88;48.06;100924.22;2091415;28;20904;-67
2021/12/16 06:33:11;;;;;;;;;;;;;;;18.89;48.10;100927.81;2092334;28;20302;-66
2021/12/16 06:34:11;;;;;;;;;;;;;;;18.88;48.21;100931.56;2090562;28;19946;-66
2021/12/16 06:35:12;;;;;;;;;;;;;;;18.88;48.17;100928.81;2091893;28;20710;-66
2021/12/16 06:36:12;;;;;;;;;;;;;;;18.88;48.16;100935.16;2094115;28;20367;-66
2021/12/16 06:37:13;;;;;;;;;;;;;;;18.88;48.12;100931.56;2091641;28;19914;-66
2021/12/16 06:38:13;;;;;;;;;;;;;;;18.87;48.20;100932.56;2092172;28;19916;-66
2021/12/16 06:39:14;;;;;;;;;;;;;;;18.87;48.16;100932.56;2092850;28;19920;-66
2021/12/16 06:40:15;;;;;;;;;;;;;;;18.85;48.17;100930.81;2090993;28;19908;-66
2021/12/16 06:41:16;;;;;;;;;;;;;;;18.85;48.17;100936.28;2092737;28;19942;-66
2021/12/16 06:42:16;;;;;;;;;;;;;;;18.86;48.13;100937.13;2091854;28;19908;-66
2021/12/16 06:43:18;;;;;;;;;;;;;;;18.84;48.09;100940.03;2090352;28;19915;-66
2021/12/16 06:44:24;;;;;;;;;;;;;;;18.84;48.17;100934.56;2092793;28;20436;-66
2021/12/16 06:45:29;;;;;;;;;;;;;;;18.83;48.18;100935.53;2091203;28;20647;-66
2021/12/16 06:46:34;;;;;;;;;;;;;;;18.83;48.30;100940.13;2091308;28;19923;-66
2021/12/16 06:47:49;;;;;;;;;;;;;;;18.82;48.16;100942.00;2094115;28;19916;-66
2021/12/16 06:48:56;;;;;;;;;;;;;;;18.81;48.30;100934.81;2090612;28;20374;-66
2021/12/16 06:49:56;;;;;;;;;;;;;;;18.81;48.15;100940.28;2092683;28;19916;-66
2021/12/16 06:51:22;;;;;;;;;;;;;;;18.80;48.17;100935.81;2090547;28;19916;-66
2021/12/16 06:52:21;;;;;;;;;;;;;;;18.80;48.25;100937.66;2091854;28;20395;-66
2021/12/16 06:53:30;;;;;;;;;;;;;;;18.80;48.21;100935.81;2093026;28;19923;-66
2021/12/16 06:54:52;;;;;;;;;;;;;;;18.80;48.28;100935.81;2095584;28;20318;-66
2021/12/16 06:56:11;;;;;;;;;;;;;;;18.79;48.21;100941.38;2095783;28;19920;-66
2021/12/16 06:57:23;;;;;;;;;;;;;;;18.78;48.19;100945.97;2091392;28;19916;-66
2021/12/16 06:58:49;;;;;;;;;;;;;;;18.79;48.16;100941.38;2093297;28;19923;-66
2021/12/16 07:00:07;;;;;;;;;;;;;;;18.78;48.14;100939.66;2090781;28;20309;-66
2021/12/16 07:01:14;;;;;;;;;;;;;;;18.78;48.20;100943.25;2089927;28;19915;-66
2021/12/16 07:02:38;;;;;;;;;;;;;;;18.77;48.20;100944.25;2089370;28;19916;-67
2021/12/16 07:03:48;;;;;;;;;;;;;;;18.77;48.21;100940.66;2085644;28;20018;-66
2021/12/16 07:04:48;;;;;;;;;;;;;;;18.76;48.27;100942.50;2083711;28;20429;-66
2021/12/16 07:05:52;;;;;;;;;;;;;;;18.75;48.23;100946.22;2091314;28;20404;-66
2021/12/16 07:06:53;;;;;;;;;;;;;;;18.76;48.36;100941.63;2092014;28;20633;-66
2021/12/16 07:07:53;;;;;;;;;;;;;;;18.74;48.29;100949.94;2090535;28;20413;-66
2021/12/16 07:08:56;;;;;;;;;;;;;;;18.75;48.13;100942.63;2090450;28;19964;-67
2021/12/16 07:09:56;;;;;;;;;;;;;;;18.74;48.31;100949.94;2092630;28;20617;-66
2021/12/16 07:10:57;;;;;;;;;;;;;;;18.74;48.27;100952.69;2090932;28;19931;-66
2021/12/16 07:11:58;;;;;;;;;;;;;;;18.74;48.23;100949.94;2091013;28;19969;-66
2021/12/16 07:13:06;;;;;;;;;;;;;;;18.74;48.37;100957.25;2086509;28;20387;-66
2021/12/16 07:14:12;;;;;;;;;;;;;;;18.72;48.25;100946.47;2090185;28;20686;-67
2021/12/16 07:15:14;;;;;;;;;;;;;;;18.72;48.35;100946.47;2091431;28;19923;-66
2021/12/16 07:16:14;;;;;;;;;;;;;;;18.72;48.32;100951.94;2091437;28;20222;-67
2021/12/16 07:17:16;;;;;;;;;;;;;;;18.72;48.26;100951.94;2090246;28;20236;-66
2021/12/16 07:18:16;;;;;;;;;;;;;;;18.70;48.24;100958.53;2091348;28;19945;-66
2021/12/16 07:19:17;;;;;;;;;;;;;;;18.71;48.27;100961.09;2090535;28;19973;-66
2021/12/16 07:20:19;;;;;;;;;;;;;;;18.70;48.23;100959.38;2090809;28;19943;-66
2021/12/16 07:21:19;;;;;;;;;;;;;;;18.71;48.32;100954.78;2101353;28;19916;-66
2021/12/16 07:22:20;;;;;;;;;;;;;;;18.70;48.46;100953.91;2094663;28;19920;-66
2021/12/16 07:23:20;;;;;;;;;;;;;;;18.68;48.36;100950.44;2091472;28;19912;-66
2021/12/16 07:24:20;;;;;;;;;;;;;;;18.67;48.30;100951.44;2092375;28;20114;-66
2021/12/16 07:25:21;;;;;;;;;;;;;;;18.69;48.32;100957.66;2090479;28;19912;-66
2021/12/16 07:26:21;;;;;;;;;;;;;;;18.68;48.28;100966.81;2093302;28;19916;-66
2021/12/16 07:27:22;;;;;;;;;;;;;;;18.68;48.34;100958.63;2089299;28;19916;-66
2021/12/16 07:28:22;;;;;;;;;;;;;;;18.68;48.41;100972.28;2092045;28;19916;-66
2021/12/16 07:29:23;;;;;;;;;;;;;;;18.68;48.30;100972.28;2091615;28;20193;-66
2021/12/16 07:30:23;;;;;;;;;;;;;;;18.67;48.30;100970.56;2090415;28;19920;-66
2021/12/16 07:31:24;;;;;;;;;;;;;;;18.67;48.35;100969.66;2089382;28;19923;-66
2021/12/16 07:32:24;;;;;;;;;;;;;;;18.66;48.48;100974.28;2094309;28;20073;-66
2021/12/16 07:33:25;;;;;;;;;;;;;;;18.67;48.43;100975.13;2091221;28;19916;-66
2021/12/16 07:34:26;;;;;;;;;;;;;;;18.64;48.39;100970.78;2085967;28;20034;-66
2021/12/16 07:35:26;;;;;;;;;;;;;;;18.65;48.35;100972.53;2090810;28;19970;-66
2021/12/16 07:36:28;;;;;;;;;;;;;;;18.66;48.45;100967.94;2091351;28;20331;-66
2021/12/16 07:37:28;;;;;;;;;;;;;;;18.64;48.34;100965.34;2092070;28;19942;-66
2021/12/16 07:38:29;;;;;;;;;;;;;;;18.63;48.35;100966.34;2091134;28;19920;-66
2021/12/16 07:39:36;;;;;;;;;;;;;;;18.62;48.32;100965.47;2088415;28;19925;-66
2021/12/16 07:40:39;;;;;;;;;;;;;;;18.63;48.45;100969.06;2090269;28;19916;-66
2021/12/16 07:41:41;;;;;;;;;;;;;;;18.62;48.52;100961.88;2091274;28;20286;-65
2021/12/16 07:43:11;;;;;;;;;;;;;;;18.61;48.44;100965.59;2092842;28;19938;-66
2021/12/16 07:44:11;;;;;;;;;;;;;;;18.61;48.40;100965.59;2090972;28;19916;-66
2021/12/16 07:45:12;;;;;;;;;;;;;;;18.61;48.43;100965.59;2091978;28;19916;-66
2021/12/16 07:46:13;;;;;;;;;;;;;;;18.61;48.48;100960.13;2090937;28;20215;-66
2021/12/16 07:47:13;;;;;;;;;;;;;;;18.60;48.35;100964.72;2091382;28;19966;-66
2021/12/16 07:48:15;;;;;;;;;;;;;;;18.60;48.48;100970.19;2091054;28;19962;-66
2021/12/16 07:49:18;;;;;;;;;;;;;;;18.60;48.39;100963.88;2090935;28;19923;-66
2021/12/16 07:50:19;;;;;;;;;;;;;;;18.59;48.42;100963.00;2092967;28;19923;-66
2021/12/16 07:51:20;;;;;;;;;;;;;;;18.58;48.41;100966.72;2092384;28;19920;-66
2021/12/16 07:52:21;;;;;;;;;;;;;;;18.57;48.35;100964.09;2091263;28;19908;-66
2021/12/16 07:53:22;;;;;;;;;;;;;;;18.57;48.59;100964.09;2093712;28;20295;-66
2021/12/16 07:54:23;;;;;;;;;;;;;;;18.57;48.66;100964.09;2091965;28;19933;-66
2021/12/16 07:55:24;;;;;;;;;;;;;;;18.57;48.61;100972.28;2100149;28;19977;-66
2021/12/16 07:56:24;;;;;;;;;;;;;;;18.60;48.39;100963.88;2090370;28;20012;-67
2021/12/16 07:57:24;;;;;;;;;;;;;;;18.60;48.28;100964.72;2091755;28;19958;-67
2021/12/16 07:58:25;;;;;;;;;;;;;;;18.62;48.01;100961.88;2085901;28;20019;-66
2021/12/16 07:59:26;;;;;;;;;;;;;;;18.62;48.04;100967.34;2080930;28;19916;-66